Time;durP1;ratioP1;P1;durP2;ratioP2;P2;SDS_P1;SDS_P2;PMS_P1;PMS_P2;Temp;Humidity;BMP_temperature;BMP_pressure;BME280_temperature;BME280_humidity;BME280_pressure;Samples;Min_cycle;Max_cycle;Signal;HPM_P1;HPM_P2
2021/12/29 00:02:58;;;;;;;16.17;8.73;;;1.50;99.90;;;-0.57;100.00;99226.38;10387171;28;96983;-77
2021/12/29 00:08:03;;;;;;;15.37;8.17;;;1.50;99.90;;;-0.61;100.00;99220.56;10379893;28;96577;-77
2021/12/29 00:13:06;;;;;;;21.67;10.07;;;1.50;99.90;;;-0.60;100.00;99210.94;10378778;28;98194;-76
2021/12/29 00:18:09;;;;;;;19.47;10.13;;;1.50;99.90;;;-0.59;100.00;99215.25;10373736;28;98165;-76
2021/12/29 00:23:12;;;;;;;21.27;10.30;;;1.50;99.90;;;-0.59;100.00;99208.25;10388087;28;97979;-76
2021/12/29 00:28:16;;;;;;;22.77;9.70;;;1.50;99.90;;;-0.58;100.00;99209.06;10393533;28;98244;-76
2021/12/29 00:33:20;;;;;;;23.00;10.57;;;1.50;99.90;;;-0.56;100.00;99205.38;10370976;28;97949;-76
2021/12/29 00:38:23;;;;;;;23.10;9.70;;;1.50;99.90;;;-0.55;100.00;99211.44;10377984;27;97855;-76
2021/12/29 00:43:26;;;;;;;21.57;10.17;;;1.60;99.90;;;-0.54;100.00;99215.69;10349610;28;97914;-76
2021/12/29 00:48:35;;;;;;;17.17;8.80;;;1.60;99.90;;;-0.54;100.00;99205.25;10355121;28;98162;-77
2021/12/29 00:53:39;;;;;;;21.30;10.73;;;1.50;99.90;;;-0.57;100.00;99205.50;10404971;28;96553;-77
2021/12/29 00:58:44;;;;;;;20.83;11.20;;;1.50;99.90;;;-0.59;100.00;99197.81;10377083;28;96874;-77
2021/12/29 01:03:47;;;;;;;20.23;9.87;;;1.50;99.90;;;-0.58;100.00;99193.41;10390961;28;98137;-77
2021/12/29 01:08:50;;;;;;;30.63;11.97;;;1.50;99.90;;;-0.59;100.00;99182.16;10372094;28;96932;-77
2021/12/29 01:13:53;;;;;;;38.77;15.07;;;1.50;99.90;;;-0.57;100.00;99187.25;10366739;28;96758;-77
2021/12/29 01:18:56;;;;;;;25.37;11.20;;;1.50;99.90;;;-0.58;100.00;99181.19;10367270;28;98639;-77
2021/12/29 01:24:01;;;;;;;31.23;12.47;;;1.50;99.90;;;-0.58;100.00;99173.38;10386784;28;96764;-77
2021/12/29 01:29:05;;;;;;;45.67;15.27;;;1.50;99.90;;;-0.55;100.00;99174.88;10379625;28;96762;-77
2021/12/29 01:34:09;;;;;;;25.60;11.60;;;1.50;99.90;;;-0.55;100.00;99169.66;10390834;28;96954;-77
2021/12/29 01:39:16;;;;;;;28.60;12.30;;;1.50;99.90;;;-0.53;100.00;99159.97;10365929;28;98449;-76
2021/12/29 01:44:23;;;;;;;23.87;11.53;;;1.50;99.90;;;-0.53;100.00;99177.41;10382859;28;97835;-76
2021/12/29 01:49:26;;;;;;;22.13;10.47;;;1.60;99.90;;;-0.52;100.00;99171.22;10371545;28;97980;-76
2021/12/29 01:54:34;;;;;;;23.87;10.27;;;1.60;99.90;;;-0.54;100.00;99179.16;10361210;28;97840;-76
2021/12/29 01:59:39;;;;;;;30.10;12.13;;;1.50;99.90;;;-0.55;100.00;99193.16;10376887;28;97706;-75
2021/12/29 02:04:45;;;;;;;32.90;13.17;;;1.50;99.90;;;-0.56;100.00;99200.16;10358040;28;98603;-76
2021/12/29 02:09:48;;;;;;;24.37;11.23;;;1.50;99.90;;;-0.55;100.00;99199.19;10361471;28;98284;-76
2021/12/29 02:14:51;;;;;;;28.13;12.23;;;1.50;99.90;;;-0.54;100.00;99205.25;10387495;28;96756;-76
2021/12/29 02:19:58;;;;;;;25.40;10.97;;;1.50;99.90;;;-0.53;100.00;99206.09;10387907;28;98565;-77
2021/12/29 02:25:21;;;;;;;24.17;10.67;;;1.50;99.90;;;-0.53;100.00;99199.09;10374955;28;97073;-77
2021/12/29 02:30:26;;;;;;;29.00;12.27;;;1.50;99.90;;;-0.53;100.00;99201.72;10382425;28;96861;-77
2021/12/29 02:35:29;;;;;;;28.83;12.13;;;1.50;99.90;;;-0.51;100.00;99206.81;10370955;28;96674;-76
2021/12/29 02:40:32;;;;;;;27.97;11.67;;;1.50;99.90;;;-0.50;100.00;99211.06;10389623;28;97502;-77
2021/12/29 02:45:35;;;;;;;38.73;11.97;;;1.50;99.90;;;-0.50;100.00;99192.81;10373467;27;97167;-76
2021/12/29 02:50:38;;;;;;;38.17;12.50;;;1.50;99.90;;;-0.50;100.00;99188.41;10397594;28;96885;-77
2021/12/29 02:55:41;;;;;;;45.50;14.63;;;1.50;99.90;;;-0.52;100.00;99192.09;10362704;28;96624;-77
2021/12/29 03:00:44;;;;;;;44.47;14.07;;;1.50;99.90;;;-0.52;100.00;99195.53;10359421;28;96661;-77
2021/12/29 03:05:48;;;;;;;41.57;13.83;;;1.50;99.90;;;-0.49;100.00;99197.88;10389240;28;98165;-77
2021/12/29 03:10:53;;;;;;;40.40;13.53;;;1.60;99.90;;;-0.49;100.00;99179.63;10373306;28;97197;-77
2021/12/29 03:15:57;;;;;;;47.63;13.83;;;1.60;99.90;;;-0.48;100.00;99191.75;10370331;27;99161;-77
2021/12/29 03:21:01;;;;;;;40.17;12.33;;;1.60;99.90;;;-0.45;100.00;99194.09;10365207;27;96778;-77
2021/12/29 03:26:06;;;;;;;38.60;12.80;;;1.60;99.90;;;-0.43;100.00;99186.97;10388807;27;99379;-76
2021/12/29 03:31:14;;;;;;;48.47;13.00;;;1.60;99.90;;;-0.43;100.00;99166.06;10371274;28;98055;-77
2021/12/29 03:36:18;;;;;;;51.13;11.27;;;1.60;99.90;;;-0.44;100.00;99168.81;10379114;27;96990;-77
2021/12/29 03:41:24;;;;;;;54.30;13.93;;;1.60;99.90;;;-0.44;100.00;99166.22;10371472;28;97501;-77
2021/12/29 03:46:28;;;;;;;54.13;11.90;;;1.60;99.90;;;-0.43;100.00;99167.84;10369445;28;97196;-77
2021/12/29 03:51:31;;;;;;;51.17;14.60;;;1.70;99.90;;;-0.43;100.00;99175.69;10395673;27;96583;-76
2021/12/29 03:56:34;;;;;;;39.67;12.33;;;1.60;99.90;;;-0.40;100.00;99184.13;10356332;28;98065;-76
2021/12/29 04:01:37;;;;;;;54.80;12.53;;;1.70;99.90;;;-0.39;100.00;99193.59;10369336;28;99279;-76
2021/12/29 04:06:41;;;;;;;50.87;12.73;;;1.70;99.90;;;-0.38;100.00;99194.44;10377346;27;98568;-77
2021/12/29 04:11:49;;;;;;;49.83;11.97;;;1.70;99.90;;;-0.35;100.00;99208.06;10375400;28;98559;-76
2021/12/29 04:16:56;;;;;;;74.50;13.67;;;1.70;99.90;;;-0.33;100.00;99213.16;10359052;28;98297;-77
2021/12/29 04:21:59;;;;;;;61.40;12.43;;;1.70;99.90;;;-0.34;100.00;99211.50;10371209;28;96680;-77
2021/12/29 04:27:06;;;;;;;65.40;12.90;;;1.80;99.90;;;-0.36;100.00;99209.03;10379048;28;97699;-76
2021/12/29 04:32:08;;;;;;;74.03;13.80;;;1.70;99.90;;;-0.36;100.00;99214.25;10398062;27;97402;-77
2021/12/29 04:37:11;;;;;;;40.77;10.07;;;1.70;99.90;;;-0.36;100.00;99210.78;10373970;28;96723;-77
2021/12/29 04:42:14;;;;;;;62.83;11.23;;;1.70;99.90;;;-0.37;100.00;99212.56;10382034;28;98630;-76
2021/12/29 04:47:19;;;;;;;53.67;11.40;;;1.70;99.90;;;-0.39;100.00;99211.88;10365912;28;98236;-77
2021/12/29 04:52:21;;;;;;;48.80;10.73;;;1.70;99.90;;;-0.38;100.00;99225.75;10378106;28;97065;-76
2021/12/29 04:57:26;;;;;;;40.20;11.57;;;1.70;99.90;;;-0.39;100.00;99221.50;10397510;28;100153;-78
2021/12/29 05:02:28;;;;;;;70.57;12.10;;;1.70;99.90;;;-0.38;100.00;99228.38;10375187;28;97422;-77
2021/12/29 05:12:53;;;;;;;51.78;13.73;;;1.70;99.90;;;-0.35;100.00;99228.97;10371490;28;97306;-76
2021/12/29 05:17:58;;;;;;;83.97;12.67;;;1.70;99.90;;;-0.34;100.00;99217.56;10377871;28;97691;-76
2021/12/29 05:23:02;;;;;;;57.30;10.07;;;1.70;99.90;;;-0.31;100.00;99212.06;10377350;28;97110;-77
2021/12/29 05:28:05;;;;;;;44.37;10.17;;;1.80;99.90;;;-0.31;100.00;99221.69;10366781;28;97969;-77
2021/12/29 05:33:08;;;;;;;65.63;12.03;;;1.80;99.90;;;-0.34;100.00;99228.00;10379805;28;100254;-76
2021/12/29 05:38:11;;;;;;;38.47;10.53;;;1.80;99.90;;;-0.35;100.00;99238.56;10377534;27;97195;-77
2021/12/29 05:43:14;;;;;;;56.50;11.57;;;1.80;99.90;;;-0.35;100.00;99242.00;10386266;27;96688;-78
2021/12/29 05:48:18;;;;;;;43.63;11.40;;;1.70;99.90;;;-0.35;100.00;99244.63;10369046;28;96990;-77
2021/12/29 05:53:21;;;;;;;47.57;13.57;;;1.70;99.90;;;-0.36;100.00;99248.19;10381523;28;96753;-78
2021/12/29 05:58:25;;;;;;;52.77;12.87;;;1.70;99.90;;;-0.36;100.00;99247.34;10365834;28;97220;-77
2021/12/29 06:03:28;;;;;;;51.07;13.93;;;1.80;99.90;;;-0.37;100.00;99254.34;10370571;28;98358;-77
2021/12/29 06:08:32;;;;;;;45.70;13.73;;;1.80;99.90;;;-0.39;100.00;99251.03;10369083;28;96776;-77
2021/12/29 06:13:34;;;;;;;52.73;18.17;;;1.80;99.90;;;-0.39;100.00;99245.81;10365473;28;97102;-77
2021/12/29 06:18:38;;;;;;;47.23;14.93;;;1.70;99.90;;;-0.41;100.00;99239.88;10363121;28;96839;-78
2021/12/29 06:23:41;;;;;;;32.73;10.93;;;1.70;99.90;;;-0.41;100.00;99245.09;10387410;28;98324;-79
2021/12/29 06:28:44;;;;;;;32.23;11.40;;;1.70;99.90;;;-0.40;100.00;99253.78;10364606;28;100335;-77
2021/12/29 06:33:47;;;;;;;34.40;11.93;;;1.70;99.90;;;-0.40;100.00;99267.66;10389955;28;96932;-77
2021/12/29 06:38:50;;;;;;;21.20;8.83;;;1.70;99.90;;;-0.41;100.00;99263.38;10366217;27;96890;-77
2021/12/29 06:43:53;;;;;;;21.07;8.70;;;1.70;99.90;;;-0.39;100.00;99260.66;10369076;28;96853;-77
2021/12/29 06:48:56;;;;;;;21.83;9.10;;;1.70;99.90;;;-0.35;100.00;99264.69;10366273;28;98006;-77
2021/12/29 06:53:59;;;;;;;24.80;10.23;;;1.70;99.90;;;-0.33;100.00;99275.81;10376509;28;98110;-77
2021/12/29 06:59:02;;;;;;;28.00;10.40;;;1.70;99.90;;;-0.32;100.00;99270.47;10366713;28;98340;-77
2021/12/29 07:04:06;;;;;;;20.57;8.27;;;1.70;99.90;;;-0.29;100.00;99272.03;10373183;28;96801;-78
2021/12/29 07:09:10;;;;;;;28.27;11.17;;;1.80;99.90;;;-0.25;100.00;99278.63;10385764;28;98011;-77
2021/12/29 07:14:13;;;;;;;29.53;10.77;;;1.80;99.90;;;-0.25;100.00;99285.66;10373235;28;98230;-78
2021/12/29 07:19:19;;;;;;;24.37;10.40;;;1.80;99.90;;;-0.23;100.00;99302.03;10400839;27;98936;-78
2021/12/29 07:24:22;;;;;;;34.80;12.10;;;1.80;99.90;;;-0.22;100.00;99298.47;10374831;28;97034;-77
2021/12/29 07:29:25;;;;;;;37.73;12.70;;;1.80;99.90;;;-0.19;100.00;99293.81;10395176;27;97673;-77
2021/12/29 07:34:28;;;;;;;39.17;14.37;;;1.80;99.90;;;-0.13;100.00;99302.94;10378445;28;96656;-78
2021/12/29 07:39:32;;;;;;;38.60;13.20;;;1.90;99.90;;;-0.12;100.00;99302.00;10382454;28;96658;-78
2021/12/29 07:44:36;;;;;;;46.07;13.80;;;1.90;99.90;;;-0.12;100.00;99315.06;10371526;28;98721;-78
2021/12/29 07:49:40;;;;;;;252.70;83.63;;;1.90;99.90;;;-0.09;100.00;99314.81;10375049;28;97087;-78
2021/12/29 07:54:43;;;;;;;54.73;20.60;;;1.90;99.90;;;-0.06;100.00;99325.88;10363618;28;97739;-78
2021/12/29 07:59:47;;;;;;;52.53;18.57;;;2.00;99.90;;;-0.02;100.00;99322.03;10377240;28;98166;-79
2021/12/29 08:04:50;;;;;;;42.53;15.97;;;2.00;99.90;;;0.05;100.00;99318.94;10382661;28;96983;-78
2021/12/29 08:10:11;;;;;;;33.80;15.00;;;2.00;99.90;;;0.10;100.00;99309.78;10388889;28;98244;-78
2021/12/29 08:15:14;;;;;;;46.90;15.90;;;2.10;99.90;;;0.17;100.00;99325.78;10388665;28;96820;-78
2021/12/29 08:20:18;;;;;;;45.63;16.93;;;2.20;99.90;;;0.26;100.00;99330.28;10397336;28;96676;-79
2021/12/29 08:25:21;;;;;;;39.53;17.00;;;2.20;99.90;;;0.33;100.00;99330.63;10359666;28;97000;-79
2021/12/29 08:30:25;;;;;;;46.10;17.80;;;2.30;99.90;;;0.40;100.00;99342.25;10366696;28;97092;-79
2021/12/29 08:35:29;;;;;;;44.10;15.47;;;2.40;99.90;;;0.43;100.00;99342.00;10378021;27;98120;-79
2021/12/29 08:40:32;;;;;;;78.80;29.10;;;2.40;99.90;;;0.46;100.00;99347.81;10366753;28;99494;-79
2021/12/29 08:45:37;;;;;;;70.57;29.57;;;2.50;99.90;;;0.54;100.00;99355.03;10376578;28;96770;-79
2021/12/29 08:50:41;;;;;;;57.90;23.60;;;2.50;99.90;;;0.60;100.00;99365.00;10391858;28;97047;-79
2021/12/29 08:55:47;;;;;;;59.33;24.53;;;2.60;99.90;;;0.62;100.00;99372.72;10360799;27;96774;-79
2021/12/29 09:00:52;;;;;;;85.23;39.73;;;2.60;99.90;;;0.66;100.00;99374.97;10365418;27;97125;-79
2021/12/29 09:05:55;;;;;;;55.97;26.40;;;2.60;99.90;;;0.83;100.00;99373.56;10360622;27;98337;-79
2021/12/29 09:10:58;;;;;;;44.23;19.73;;;2.80;99.90;;;1.09;100.00;99368.81;10371790;28;96760;-77
2021/12/29 09:16:02;;;;;;;46.67;19.40;;;3.00;99.90;;;1.37;100.00;99369.91;10367531;27;97733;-77
2021/12/29 09:21:12;;;;;;;29.37;14.90;;;3.20;99.90;;;1.56;100.00;99356.09;10365900;27;97696;-77
2021/12/29 09:26:17;;;;;;;38.60;16.50;;;3.40;99.90;;;1.79;100.00;99344.47;10354399;28;97800;-78
2021/12/29 09:31:20;;;;;;;40.37;18.77;;;3.60;99.90;;;2.02;100.00;99354.75;10376344;28;97213;-78
2021/12/29 09:36:24;;;;;;;37.57;17.93;;;3.80;99.90;;;2.07;100.00;99344.69;10359762;28;98532;-78
2021/12/29 09:41:29;;;;;;;33.27;15.50;;;3.90;99.90;;;2.09;100.00;99340.13;10361963;28;97364;-78
2021/12/29 09:46:32;;;;;;;36.80;15.93;;;3.90;99.90;;;2.13;100.00;99331.06;10369091;28;97491;-77
2021/12/29 09:51:35;;;;;;;26.27;12.77;;;4.00;99.90;;;2.12;100.00;99326.78;10366875;27;97262;-77
2021/12/29 09:56:38;;;;;;;37.67;17.67;;;4.00;99.90;;;2.02;100.00;99316.28;10381674;28;96640;-78
2021/12/29 10:01:41;;;;;;;39.70;18.37;;;4.00;99.90;;;2.01;100.00;99313.78;10374012;28;98840;-79
2021/12/29 10:06:45;;;;;;;40.27;18.73;;;3.90;99.90;;;1.98;100.00;99312.28;10366861;28;98484;-79
2021/12/29 10:11:48;;;;;;;44.23;19.50;;;3.90;99.90;;;1.92;100.00;99312.81;10370116;28;96672;-78
2021/12/29 10:16:51;;;;;;;39.23;18.83;;;3.90;99.90;;;1.80;99.73;99312.09;10387307;27;98537;-77
2021/12/29 10:21:54;;;;;;;43.73;18.60;;;3.80;99.90;;;1.73;99.77;99304.88;10374755;28;97293;-77
2021/12/29 10:26:58;;;;;;;45.37;21.60;;;3.70;99.90;;;1.70;99.54;99313.03;10384140;28;97506;-77
2021/12/29 10:32:02;;;;;;;40.27;19.13;;;3.70;99.90;;;1.67;99.55;99308.84;10375811;28;96855;-77
2021/12/29 10:37:09;;;;;;;42.83;20.40;;;3.70;99.90;;;1.65;99.55;99308.19;10366099;28;97004;-77
2021/12/29 10:42:21;;;;;;;39.70;19.67;;;3.60;99.90;;;1.66;99.50;99309.81;10399423;28;97082;-77
2021/12/29 10:47:28;;;;;;;35.73;17.13;;;3.60;99.90;;;1.67;99.64;99311.47;10372400;28;96857;-79
2021/12/29 10:52:41;;;;;;;35.47;17.23;;;3.70;99.90;;;1.66;99.85;99304.59;10364333;28;98189;-77
2021/12/29 10:57:46;;;;;;;35.10;16.07;;;3.70;99.90;;;1.72;100.00;99311.91;10385208;28;98553;-77
2021/12/29 11:03:21;;;;;;;32.60;17.00;;;3.70;99.90;;;1.71;99.68;99319.91;10359659;28;97221;-77
2021/12/29 11:08:33;;;;;;;42.73;17.37;;;3.70;99.90;;;1.69;99.97;99319.22;10370446;28;96759;-77
2021/12/29 11:13:36;;;;;;;36.53;16.50;;;3.70;99.90;;;1.64;99.88;99314.38;10366781;27;97951;-77
2021/12/29 11:18:51;;;;;;;39.47;17.60;;;3.70;99.90;;;1.64;100.00;99318.78;10363117;28;97389;-78
2021/12/29 11:23:56;;;;;;;38.83;17.60;;;3.70;99.90;;;1.62;100.00;99318.94;10371348;28;96856;-77
2021/12/29 11:29:09;;;;;;;39.27;16.93;;;3.70;99.90;;;1.61;100.00;99318.06;10386780;28;97062;-77
2021/12/29 11:34:26;;;;;;;40.17;16.70;;;3.70;99.90;;;1.60;99.90;99315.59;10359823;28;97779;-78
2021/12/29 11:39:33;;;;;;;60.40;27.87;;;3.70;99.90;;;1.59;100.00;99313.94;10377614;28;97298;-77
2021/12/29 11:44:37;;;;;;;35.07;15.87;;;3.60;99.90;;;1.56;100.00;99322.91;10372206;28;96767;-77
2021/12/29 11:49:40;;;;;;;34.83;16.73;;;3.60;99.90;;;1.53;99.69;99317.09;10387145;28;96668;-77
2021/12/29 11:54:59;;;;;;;41.77;17.53;;;3.60;99.90;;;1.52;99.97;99315.44;10367543;28;98094;-77
2021/12/29 12:00:07;;;;;;;52.40;21.63;;;3.50;99.90;;;1.52;100.00;99318.06;10362856;28;96749;-78
2021/12/29 12:05:15;;;;;;;40.17;19.13;;;3.50;99.90;;;1.55;100.00;99325.63;10392115;28;98096;-77
2021/12/29 12:10:35;;;;;;;40.87;18.70;;;3.60;99.90;;;1.58;100.00;99330.63;10362881;28;97494;-77
2021/12/29 12:15:38;;;;;;;51.57;21.70;;;3.60;99.90;;;1.60;100.00;99328.69;10387382;28;98953;-77
2021/12/29 12:20:45;;;;;;;91.47;40.10;;;3.60;99.90;;;1.64;100.00;99334.50;10391447;27;98013;-77
2021/12/29 12:25:48;;;;;;;64.17;28.20;;;3.60;99.90;;;1.67;100.00;99335.06;10376242;28;99582;-77
2021/12/29 12:30:54;;;;;;;53.20;25.93;;;3.60;99.90;;;1.69;100.00;99335.78;10372177;28;97963;-78
2021/12/29 12:36:08;;;;;;;47.27;21.80;;;3.70;99.90;;;1.73;100.00;99338.94;10369721;28;96855;-76
2021/12/29 12:41:19;;;;;;;49.93;20.57;;;3.70;99.90;;;1.76;100.00;99336.06;10361602;28;97311;-77
2021/12/29 12:46:41;;;;;;;55.93;24.13;;;3.70;99.90;;;1.83;100.00;99345.03;10394707;27;96896;-77
2021/12/29 12:52:06;;;;;;;41.30;20.00;;;3.80;99.90;;;1.90;100.00;99351.41;10390162;28;96506;-77
2021/12/29 12:57:09;;;;;;;51.00;23.17;;;3.80;99.90;;;1.96;100.00;99350.03;10368976;28;96608;-77
2021/12/29 13:02:15;;;;;;;70.43;30.97;;;3.90;99.90;;;1.99;100.00;99361.09;10353121;28;97455;-77
2021/12/29 13:07:23;;;;;;;53.67;24.47;;;4.00;99.90;;;2.04;100.00;99368.53;10420615;27;97843;-78
2021/12/29 13:12:36;;;;;;;69.33;30.43;;;4.00;99.90;;;2.06;100.00;99370.06;10379502;28;96602;-77
2021/12/29 13:17:44;;;;;;;66.40;31.20;;;4.00;99.90;;;2.13;100.00;99373.00;10403827;28;98770;-77
2021/12/29 13:22:48;;;;;;;57.63;26.87;;;4.10;99.90;;;2.12;100.00;99377.41;10385128;27;97340;-77
2021/12/29 13:28:05;;;;;;;45.00;20.87;;;4.10;99.90;;;2.16;100.00;99385.84;10402802;27;97514;-77
2021/12/29 13:33:08;;;;;;;43.90;20.20;;;4.10;99.90;;;2.18;100.00;99383.09;10371154;27;98253;-77
2021/12/29 13:38:13;;;;;;;66.07;25.23;;;4.20;99.90;;;2.13;100.00;99396.56;10379156;28;97112;-77
2021/12/29 13:43:25;;;;;;;62.13;23.83;;;4.10;99.90;;;2.10;100.00;99402.09;10387457;27;98347;-77
2021/12/29 13:48:31;;;;;;;49.20;21.27;;;4.10;99.90;;;2.08;100.00;99406.63;10404006;27;98001;-77
2021/12/29 13:53:38;;;;;;;44.33;19.17;;;4.10;99.90;;;2.05;100.00;99412.16;10373591;28;96638;-77
2021/12/29 13:58:43;;;;;;;56.37;21.07;;;4.10;99.90;;;2.04;100.00;99418.31;10374319;28;97065;-77
2021/12/29 14:03:46;;;;;;;46.53;18.87;;;4.10;99.90;;;2.06;100.00;99413.81;10388691;28;97026;-77
2021/12/29 14:08:49;;;;;;;54.67;20.50;;;4.10;99.90;;;2.05;100.00;99417.41;10351792;28;97497;-77
2021/12/29 14:14:05;;;;;;;50.97;21.37;;;4.10;99.90;;;2.01;100.00;99427.28;10355985;28;97538;-77
2021/12/29 14:19:09;;;;;;;52.53;21.53;;;4.10;99.90;;;1.97;100.00;99440.78;10380898;28;98426;-77
2021/12/29 14:24:16;;;;;;;51.37;20.17;;;4.00;99.90;;;1.93;100.00;99442.03;10370356;28;98551;-78
2021/12/29 14:29:21;;;;;;;45.33;20.03;;;4.00;99.90;;;1.91;100.00;99446.56;10358371;28;96905;-78
2021/12/29 14:34:41;;;;;;;59.80;23.10;;;4.00;99.90;;;1.84;100.00;99444.47;10388089;28;98440;-78
2021/12/29 14:39:45;;;;;;;54.80;23.43;;;3.90;99.90;;;1.83;100.00;99461.13;10397174;27;98170;-78
2021/12/29 14:44:57;;;;;;;59.63;23.43;;;3.90;99.90;;;1.81;100.00;99465.69;10405296;28;96547;-78
2021/12/29 14:50:06;;;;;;;57.73;23.03;;;3.90;99.90;;;1.78;100.00;99476.41;10418006;27;96529;-78
2021/12/29 14:55:13;;;;;;;61.60;25.20;;;3.80;99.90;;;1.72;100.00;99474.31;10361462;28;96595;-78
2021/12/29 15:00:25;;;;;;;70.60;28.03;;;3.80;99.90;;;1.71;100.00;99488.38;10411337;28;96703;-78
2021/12/29 15:05:39;;;;;;;99.80;41.83;;;3.70;99.90;;;1.70;100.00;99481.47;10400056;28;96955;-78
2021/12/29 15:10:44;;;;;;;80.83;31.63;;;3.80;99.90;;;1.70;100.00;99504.22;10353942;28;96509;-78
2021/12/29 15:15:51;;;;;;;68.57;28.57;;;3.80;99.90;;;1.69;100.00;99505.19;10364598;28;97767;-78
2021/12/29 15:21:02;;;;;;;53.03;23.37;;;3.70;99.90;;;1.66;100.00;99501.00;10372952;27;98130;-79
2021/12/29 15:26:08;;;;;;;48.83;21.40;;;3.70;99.90;;;1.65;100.00;99514.25;10361852;28;97108;-79
2021/12/29 15:31:14;;;;;;;77.80;29.20;;;3.70;99.90;;;1.60;100.00;99514.63;10375347;28;96641;-78
2021/12/29 15:36:18;;;;;;;82.27;31.33;;;3.70;99.90;;;1.52;100.00;99512.66;10362691;27;97611;-79
2021/12/29 15:41:22;;;;;;;72.80;30.80;;;3.60;99.90;;;1.45;100.00;99519.34;10382784;28;97217;-79
2021/12/29 15:46:25;;;;;;;73.17;35.70;;;3.60;99.90;;;1.34;100.00;99522.84;10369298;28;96967;-79
2021/12/29 15:51:29;;;;;;;74.83;33.40;;;3.50;99.90;;;1.26;100.00;99540.97;10405199;27;96825;-78
2021/12/29 15:56:32;;;;;;;47.73;20.73;;;3.40;99.90;;;1.26;100.00;99533.13;10400823;27;96705;-79
2021/12/29 16:01:35;;;;;;;49.97;20.40;;;3.30;99.90;;;1.30;100.00;99542.38;10371223;28;96913;-79
2021/12/29 16:06:38;;;;;;;54.47;21.57;;;3.30;99.90;;;1.37;100.00;99552.34;10370478;28;99127;-79
2021/12/29 16:11:41;;;;;;;55.87;21.40;;;3.30;99.90;;;1.38;100.00;99565.31;10366599;28;96653;-79
2021/12/29 16:16:45;;;;;;;62.97;20.77;;;3.30;99.90;;;1.42;100.00;99555.41;10389132;28;98104;-78
2021/12/29 16:21:48;;;;;;;57.17;22.10;;;3.40;99.90;;;1.43;100.00;99557.06;10372894;27;97108;-78
2021/12/29 16:26:51;;;;;;;60.90;22.93;;;3.40;99.90;;;1.44;100.00;99571.81;10399283;27;96656;-78
2021/12/29 16:31:54;;;;;;;75.40;27.50;;;3.40;99.90;;;1.44;100.00;99566.59;10361764;28;96850;-78
2021/12/29 16:36:57;;;;;;;72.90;28.27;;;3.40;99.90;;;1.43;100.00;99562.31;10395000;28;96588;-78
2021/12/29 16:42:00;;;;;;;69.13;25.20;;;3.40;99.90;;;1.44;100.00;99571.81;10387161;27;97861;-78
2021/12/29 16:47:04;;;;;;;54.90;22.17;;;3.40;99.90;;;1.45;100.00;99581.38;10347351;28;96798;-78
2021/12/29 16:52:07;;;;;;;57.47;23.37;;;3.40;99.90;;;1.45;100.00;99581.38;10384197;28;98299;-78
2021/12/29 16:57:14;;;;;;;48.30;21.20;;;3.40;99.90;;;1.45;100.00;99586.59;10365122;28;96716;-89
2021/12/29 17:02:17;;;;;;;51.13;18.23;;;3.40;99.90;;;1.50;100.00;99589.66;10360543;28;97411;-80
2021/12/29 17:07:20;;;;;;;62.47;25.50;;;3.40;99.90;;;1.54;100.00;99597.13;10365760;28;96752;-77
2021/12/29 17:12:24;;;;;;;67.27;28.00;;;3.50;99.90;;;1.53;100.00;99592.03;10371374;28;99261;-77
2021/12/29 17:17:27;;;;;;;69.07;27.10;;;3.50;99.90;;;1.47;100.00;99606.44;10373229;28;98289;-77
2021/12/29 17:22:31;;;;;;;59.93;25.40;;;3.50;99.90;;;1.38;100.00;99611.59;10364313;28;97903;-77
2021/12/29 17:27:35;;;;;;;81.53;32.93;;;3.40;99.90;;;1.26;100.00;99609.03;10374358;27;98761;-77
2021/12/29 17:32:38;;;;;;;67.33;25.50;;;3.30;99.90;;;1.16;100.00;99615.13;10364920;27;96872;-77
2021/12/29 17:37:42;;;;;;;57.70;22.67;;;3.30;99.90;;;1.05;100.00;99637.72;10386158;28;96602;-75
2021/12/29 17:42:45;;;;;;;55.27;20.40;;;3.20;99.90;;;0.97;100.00;99652.38;10367276;28;97161;-77
2021/12/29 17:47:50;;;;;;;44.00;16.80;;;3.10;99.90;;;0.91;100.00;99645.84;10382711;28;97561;-77
2021/12/29 17:52:53;;;;;;;44.87;16.37;;;3.00;99.90;;;0.87;100.00;99648.81;10367728;28;96755;-77
2021/12/29 17:57:57;;;;;;;49.07;16.80;;;3.00;99.90;;;0.83;100.00;99652.59;10385419;28;96589;-77
2021/12/29 18:03:01;;;;;;;39.30;16.03;;;2.90;99.90;;;0.80;100.00;99667.59;10362648;28;97669;-77
2021/12/29 18:08:05;;;;;;;50.40;17.43;;;2.90;99.90;;;0.70;100.00;99673.63;10357409;28;98417;-77
2021/12/29 18:13:08;;;;;;;54.57;20.00;;;2.80;99.90;;;0.58;100.00;99667.56;10365493;28;96704;-77
2021/12/29 18:18:11;;;;;;;42.03;15.10;;;2.70;99.90;;;0.45;100.00;99675.50;10359455;28;98409;-77
2021/12/29 18:23:15;;;;;;;48.87;17.37;;;2.60;99.90;;;0.34;100.00;99679.88;10374911;27;97899;-77
2021/12/29 18:28:18;;;;;;;46.93;16.40;;;2.50;99.90;;;0.31;100.00;99687.97;10387201;28;97503;-77
2021/12/29 18:33:21;;;;;;;53.53;15.93;;;2.40;99.90;;;0.33;100.00;99692.13;10371904;28;96723;-77
2021/12/29 18:38:24;;;;;;;52.20;14.90;;;2.40;99.90;;;0.37;100.00;99705.81;10389435;28;97121;-77
2021/12/29 18:43:28;;;;;;;51.07;15.70;;;2.40;99.90;;;0.38;100.00;99707.47;10360562;28;97209;-77
2021/12/29 18:48:31;;;;;;;49.07;17.53;;;2.40;99.90;;;0.35;100.00;99715.53;10358095;28;96821;-77
2021/12/29 18:53:34;;;;;;;63.47;20.43;;;2.40;99.90;;;0.31;100.00;99727.16;10396386;28;96704;-77
2021/12/29 18:58:38;;;;;;;49.97;18.90;;;2.40;99.90;;;0.21;100.00;99724.41;10395912;28;96738;-77
2021/12/29 19:03:41;;;;;;;62.07;20.97;;;2.30;99.90;;;0.13;100.00;99726.75;10369279;28;96690;-77
2021/12/29 19:08:44;;;;;;;53.20;19.17;;;2.30;99.90;;;0.02;100.00;99724.91;10388212;28;97658;-77
2021/12/29 19:13:48;;;;;;;57.87;22.37;;;2.20;99.90;;;-0.08;100.00;99734.38;10354116;28;98589;-77
2021/12/29 19:18:51;;;;;;;62.20;23.13;;;2.10;99.90;;;-0.21;100.00;99729.19;10376683;28;98154;-77
2021/12/29 19:23:54;;;;;;;59.50;23.70;;;2.00;99.90;;;-0.32;100.00;99736.97;10371372;28;96967;-77
2021/12/29 19:28:57;;;;;;;53.27;18.27;;;1.90;99.90;;;-0.40;100.00;99727.06;10382222;27;97715;-77
2021/12/29 19:34:00;;;;;;;81.13;22.63;;;1.80;99.90;;;-0.44;100.00;99743.91;10357713;28;96721;-77
2021/12/29 19:39:04;;;;;;;143.60;29.17;;;1.80;99.90;;;-0.48;100.00;99752.91;10367010;28;97984;-77
2021/12/29 19:44:07;;;;;;;171.33;31.00;;;1.70;99.90;;;-0.51;100.00;99755.72;10372768;28;97283;-77
2021/12/29 19:49:10;;;;;;;171.87;30.40;;;1.70;99.90;;;-0.57;100.00;99756.16;10398038;28;97038;-77
2021/12/29 19:54:13;;;;;;;159.10;30.63;;;1.60;99.90;;;-0.62;100.00;99750.41;10365640;28;98258;-77
2021/12/29 19:59:16;;;;;;;161.97;30.53;;;1.60;99.90;;;-0.65;100.00;99761.09;10367808;28;98344;-77
2021/12/29 20:04:19;;;;;;;165.23;36.90;;;1.60;99.90;;;-0.67;100.00;99776.00;10407524;27;96683;-77
2021/12/29 20:09:23;;;;;;;133.63;32.17;;;1.50;99.90;;;-0.66;100.00;99775.03;10360351;28;96675;-77
2021/12/29 20:14:30;;;;;;;98.47;34.77;;;1.50;99.90;;;-0.58;100.00;99772.75;10373091;28;97054;-77
2021/12/29 20:19:36;;;;;;;149.57;46.67;;;1.60;99.90;;;-0.48;100.00;99776.41;10378761;27;98038;-77
2021/12/29 20:24:39;;;;;;;120.83;41.77;;;1.70;99.90;;;-0.38;100.00;99782.63;10364301;28;96785;-77
2021/12/29 20:29:42;;;;;;;97.83;39.37;;;1.70;99.90;;;-0.27;100.00;99787.09;10381444;27;97380;-77
2021/12/29 20:34:45;;;;;;;150.27;47.80;;;1.80;99.90;;;-0.19;100.00;99794.38;10382094;27;97200;-77
2021/12/29 20:39:49;;;;;;;99.03;34.23;;;1.90;99.90;;;-0.15;100.00;99812.31;10391803;27;96800;-77
2021/12/29 20:44:58;;;;;;;87.47;30.60;;;1.90;99.90;;;-0.08;100.00;99816.16;10362069;27;96917;-77
2021/12/29 20:50:02;;;;;;;96.77;29.23;;;2.00;99.90;;;-0.03;100.00;99816.69;10393519;28;98457;-77
2021/12/29 20:55:09;;;;;;;71.37;26.90;;;2.10;99.90;;;0.07;100.00;99822.09;10382204;28;96737;-77